Time;durP1;ratioP1;P1;durP2;ratioP2;P2;SDS_P1;SDS_P2;PMS_P1;PMS_P2;Temp;Humidity;BMP_temperature;BMP_pressure;BME280_temperature;BME280_humidity;BME280_pressure;Samples;Min_cycle;Max_cycle;Signal;HPM_P1;HPM_P2
2023/11/05 00:00:30;;;;;;;967.40;901.13;;;8.40;99.90;;;;;;5012971;28;20465;-72
2023/11/05 00:02:58;;;;;;;961.70;895.07;;;8.40;99.90;;;;;;5012921;28;20443;-72
2023/11/05 00:05:25;;;;;;;961.00;892.87;;;8.40;99.90;;;;;;5012856;28;20964;-72
2023/11/05 00:07:52;;;;;;;947.80;877.87;;;8.40;99.90;;;;;;5028556;28;20449;-72
2023/11/05 00:10:19;;;;;;;966.07;895.57;;;8.40;99.90;;;;;;5032347;28;20461;-72
2023/11/05 00:12:46;;;;;;;962.87;890.97;;;8.40;99.90;;;;;;5032709;28;20488;-72
2023/11/05 00:15:12;;;;;;;960.67;887.97;;;8.40;99.90;;;;;;5032447;28;20450;-72
2023/11/05 00:17:39;;;;;;;961.60;888.77;;;8.40;99.90;;;;;;5032409;28;20452;-73
2023/11/05 00:20:10;;;;;;;966.33;893.73;;;8.40;99.90;;;;;;5031868;28;20462;-72
2023/11/05 00:22:37;;;;;;;970.43;897.20;;;8.40;99.90;;;;;;5031816;28;20884;-72
2023/11/05 00:25:05;;;;;;;963.77;887.93;;;8.40;99.90;;;;;;5031945;28;20818;-72
2023/11/05 00:27:31;;;;;;;961.23;882.90;;;8.40;99.90;;;;;;5031885;28;20503;-72
2023/11/05 00:29:58;;;;;;;956.67;878.30;;;8.40;99.90;;;;;;5031846;28;20459;-72
2023/11/05 00:32:25;;;;;;;958.80;879.30;;;8.40;99.90;;;;;;5031821;28;20473;-72
2023/11/05 00:34:52;;;;;;;954.33;874.07;;;8.50;99.90;;;;;;5019032;28;20444;-72
2023/11/05 00:37:20;;;;;;;951.83;872.57;;;8.60;99.90;;;;;;5012159;28;20462;-73
2023/11/05 00:39:47;;;;;;;962.33;882.50;;;8.60;99.90;;;;;;5016296;28;20561;-72
2023/11/05 00:42:14;;;;;;;970.30;890.73;;;8.70;99.90;;;;;;5031483;28;20446;-72
2023/11/05 00:44:40;;;;;;;970.20;892.00;;;8.80;99.90;;;;;;5030396;28;21046;-72
2023/11/05 00:47:07;;;;;;;972.80;895.00;;;8.80;99.90;;;;;;5031784;28;20485;-72
2023/11/05 00:49:34;;;;;;;975.17;898.27;;;8.90;99.90;;;;;;5030829;28;20553;-73
2023/11/05 00:52:01;;;;;;;978.70;901.53;;;8.90;99.90;;;;;;5019996;28;20478;-73
2023/11/05 00:54:29;;;;;;;977.87;900.37;;;9.00;99.90;;;;;;5032275;28;20451;-74
2023/11/05 00:56:56;;;;;;;966.37;887.77;;;9.00;99.90;;;;;;5020552;28;20448;-74
2023/11/05 00:59:22;;;;;;;966.77;887.07;;;9.00;99.90;;;;;;5013335;28;20460;-75
2023/11/05 01:01:49;;;;;;;958.63;876.13;;;9.10;99.90;;;;;;5016169;28;20458;-75
2023/11/05 01:04:16;;;;;;;956.30;873.80;;;9.10;99.90;;;;;;5016062;28;20837;-76
2023/11/05 01:06:43;;;;;;;959.87;877.40;;;9.10;99.90;;;;;;5015946;28;20462;-76
2023/11/05 01:09:10;;;;;;;962.40;878.80;;;9.10;99.90;;;;;;5028196;28;20440;-76
2023/11/05 01:11:40;;;;;;;968.73;884.67;;;9.10;99.90;;;;;;5035970;28;20480;-76
2023/11/05 01:14:07;;;;;;;977.20;892.70;;;9.10;99.90;;;;;;5035963;28;20545;-76
2023/11/05 01:16:34;;;;;;;979.43;894.93;;;9.10;99.90;;;;;;5035753;28;20446;-76
2023/11/05 01:19:01;;;;;;;977.63;892.67;;;9.10;99.90;;;;;;5035538;28;20449;-76
2023/11/05 01:21:28;;;;;;;974.50;890.20;;;9.10;99.90;;;;;;5035872;28;20552;-76
2023/11/05 01:23:55;;;;;;;966.07;880.83;;;9.20;99.90;;;;;;5035352;28;20830;-76
2023/11/05 01:26:22;;;;;;;965.13;879.53;;;9.20;99.90;;;;;;5028625;28;20486;-76
2023/11/05 01:28:50;;;;;;;968.70;883.63;;;9.20;99.90;;;;;;5022341;28;20954;-76
2023/11/05 01:31:17;;;;;;;967.13;882.83;;;9.20;99.90;;;;;;5034961;28;20453;-76
2023/11/05 01:33:44;;;;;;;964.90;880.60;;;9.20;99.90;;;;;;5034749;28;20458;-76
2023/11/05 01:36:11;;;;;;;966.57;880.87;;;9.30;99.90;;;;;;5022032;28;20452;-76
2023/11/05 01:38:38;;;;;;;962.80;878.40;;;9.30;99.90;;;;;;5019286;28;20459;-76
2023/11/05 01:41:05;;;;;;;971.73;887.10;;;9.30;99.90;;;;;;5032498;28;20476;-76
2023/11/05 01:43:32;;;;;;;985.90;901.37;;;9.40;99.90;;;;;;5016496;28;20450;-76
2023/11/05 01:46:00;;;;;;;980.10;897.90;;;9.40;99.90;;;;;;5033465;28;20450;-76
2023/11/05 01:48:28;;;;;;;987.23;905.80;;;9.40;99.90;;;;;;5015395;28;20452;-76
2023/11/05 01:50:55;;;;;;;980.00;897.17;;;9.40;99.90;;;;;;5154358;23;20575;-80
2023/11/05 01:53:23;;;;;;;982.83;901.60;;;9.40;99.90;;;;;;5021890;28;20568;-80
2023/11/05 01:55:51;;;;;;;977.77;896.90;;;9.40;99.90;;;;;;5014453;28;20471;-80
2023/11/05 01:58:18;;;;;;;977.97;898.87;;;9.40;99.90;;;;;;5013977;28;20521;-80
2023/11/05 02:00:45;;;;;;;982.60;903.67;;;9.50;99.90;;;;;;5030099;28;20536;-80
2023/11/05 02:03:14;;;;;;;979.80;902.40;;;9.50;99.90;;;;;;5014355;28;20861;-80
2023/11/05 02:05:41;;;;;;;978.37;901.37;;;9.60;99.90;;;;;;5014530;28;20477;-80
2023/11/05 02:08:08;;;;;;;968.63;893.97;;;9.60;99.90;;;;;;5018722;28;20555;-80
2023/11/05 02:10:35;;;;;;;972.10;900.00;;;9.60;99.90;;;;;;5033101;28;20449;-80
2023/11/05 02:13:03;;;;;;;973.33;902.10;;;9.60;99.90;;;;;;5033165;28;20561;-80
2023/11/05 02:15:30;;;;;;;961.07;892.37;;;9.60;99.90;;;;;;5033457;28;20451;-80
2023/11/05 02:17:57;;;;;;;940.57;875.70;;;9.60;99.90;;;;;;5031911;28;20477;-80
2023/11/05 02:20:26;;;;;;;940.97;879.63;;;9.70;99.90;;;;;;5014788;28;20455;-80
2023/11/05 02:22:54;;;;;;;923.30;865.90;;;9.80;99.90;;;;;;5013805;28;20532;-80
2023/11/05 02:25:22;;;;;;;891.13;838.80;;;9.80;99.90;;;;;;5014072;28;20449;-79
2023/11/05 02:27:51;;;;;;;866.53;817.53;;;9.80;99.90;;;;;;5013404;28;20830;-80
2023/11/05 02:30:18;;;;;;;841.50;796.20;;;9.90;99.90;;;;;;5015121;28;20457;-79
2023/11/05 02:32:45;;;;;;;821.97;779.77;;;10.00;99.90;;;;;;5013782;28;20481;-79
2023/11/05 02:35:12;;;;;;;766.93;730.23;;;10.00;99.90;;;;;;5013500;28;20460;-79
2023/11/05 02:37:40;;;;;;;753.90;718.93;;;10.10;99.90;;;;;;5020950;28;20459;-80
2023/11/05 02:40:08;;;;;;;730.93;697.73;;;10.10;99.90;;;;;;5032598;28;20541;-79
2023/11/05 02:42:36;;;;;;;751.73;717.23;;;10.10;99.90;;;;;;5032736;28;20731;-76
2023/11/05 02:45:04;;;;;;;721.37;688.83;;;10.10;99.90;;;;;;5033227;28;20455;-76
2023/11/05 02:47:31;;;;;;;711.97;681.23;;;10.10;99.90;;;;;;5031227;28;20455;-76
2023/11/05 02:49:58;;;;;;;729.43;697.17;;;10.10;99.90;;;;;;5032889;28;21009;-76
2023/11/05 02:52:25;;;;;;;752.80;718.47;;;10.10;99.90;;;;;;5032651;28;20486;-76
2023/11/05 02:54:52;;;;;;;744.17;710.70;;;10.10;99.90;;;;;;5030481;28;20963;-75
2023/11/05 02:57:20;;;;;;;743.40;710.20;;;10.10;99.90;;;;;;5020505;28;20962;-76
2023/11/05 02:59:48;;;;;;;760.37;725.83;;;10.00;99.90;;;;;;5032876;28;20491;-76
2023/11/05 03:02:16;;;;;;;754.17;719.60;;;10.10;99.90;;;;;;5013887;28;20527;-75
2023/11/05 03:04:42;;;;;;;746.23;712.63;;;10.10;99.90;;;;;;5013185;28;20460;-76
2023/11/05 03:07:09;;;;;;;747.57;713.40;;;10.10;99.90;;;;;;5012707;28;20511;-75
2023/11/05 03:09:36;;;;;;;758.17;723.80;;;10.10;99.90;;;;;;5013192;28;20456;-75
2023/11/05 03:12:03;;;;;;;746.87;713.17;;;10.10;99.90;;;;;;5013008;28;20479;-75
2023/11/05 03:14:30;;;;;;;767.83;731.83;;;10.10;99.90;;;;;;5024639;28;20455;-75
2023/11/05 03:17:00;;;;;;;806.00;765.60;;;10.10;99.90;;;;;;5032593;28;20452;-75
2023/11/05 03:19:27;;;;;;;827.93;784.87;;;10.00;99.90;;;;;;5032474;28;20456;-75
2023/11/05 03:21:54;;;;;;;851.50;805.00;;;10.00;99.90;;;;;;5031565;28;20455;-74
2023/11/05 03:24:21;;;;;;;866.70;818.97;;;10.00;99.90;;;;;;5032812;28;20466;-74
2023/11/05 03:26:48;;;;;;;868.20;819.80;;;9.90;99.90;;;;;;5024712;28;20460;-75
2023/11/05 03:29:15;;;;;;;880.00;830.83;;;10.00;99.90;;;;;;5012828;28;20455;-75
2023/11/05 03:31:43;;;;;;;877.20;827.80;;;9.90;99.90;;;;;;5020999;28;20816;-74
2023/11/05 03:34:11;;;;;;;871.10;822.13;;;9.90;99.90;;;;;;5031814;28;20478;-75
2023/11/05 03:36:38;;;;;;;858.83;810.70;;;9.90;99.90;;;;;;5032009;28;20538;-74
2023/11/05 03:39:05;;;;;;;839.50;794.30;;;9.90;99.90;;;;;;5031474;28;20459;-74
2023/11/05 03:41:32;;;;;;;850.97;804.37;;;9.90;99.90;;;;;;5023776;28;20959;-74
2023/11/05 03:43:58;;;;;;;861.83;814.27;;;9.90;99.90;;;;;;5012490;28;20531;-74
2023/11/05 03:46:25;;;;;;;854.90;807.50;;;9.90;99.90;;;;;;5016213;28;20970;-74
2023/11/05 03:48:52;;;;;;;855.20;807.60;;;9.90;99.90;;;;;;5026909;28;20826;-74
2023/11/05 03:51:21;;;;;;;856.20;808.50;;;9.80;99.90;;;;;;5012337;28;20966;-74
2023/11/05 03:53:48;;;;;;;848.90;801.87;;;9.90;99.90;;;;;;5012115;28;20472;-74
2023/11/05 03:56:17;;;;;;;848.23;800.70;;;10.00;99.90;;;;;;5013316;28;20457;-75
2023/11/05 03:58:44;;;;;;;855.67;807.27;;;10.00;99.90;;;;;;5022820;28;20980;-75
2023/11/05 04:01:17;;;;;;;862.97;814.53;;;10.00;99.90;;;;;;5012030;28;20532;-75
2023/11/05 04:03:44;;;;;;;857.43;809.90;;;10.00;99.90;;;;;;5026546;28;20444;-75
2023/11/05 04:06:11;;;;;;;851.77;804.07;;;10.00;99.90;;;;;;5031981;28;20475;-75
2023/11/05 04:08:39;;;;;;;849.77;802.37;;;10.00;99.90;;;;;;5031554;28;20545;-75
2023/11/05 04:11:06;;;;;;;865.80;816.80;;;10.00;99.90;;;;;;5031655;28;20540;-75
2023/11/05 04:13:32;;;;;;;887.83;837.23;;;9.90;99.90;;;;;;5031493;28;20478;-76
2023/11/05 04:16:00;;;;;;;902.13;847.47;;;9.90;99.90;;;;;;5016874;28;20456;-75
2023/11/05 04:18:27;;;;;;;894.93;841.30;;;9.90;99.90;;;;;;5011534;28;20451;-75
2023/11/05 04:20:53;;;;;;;894.17;841.17;;;9.80;99.90;;;;;;5012034;28;20447;-75
2023/11/05 04:23:20;;;;;;;893.80;839.00;;;9.80;99.90;;;;;;5011805;28;20448;-76
2023/11/05 04:25:48;;;;;;;896.00;840.73;;;9.80;99.90;;;;;;5011673;28;20455;-75
2023/11/05 04:28:15;;;;;;;898.23;842.90;;;9.80;99.90;;;;;;5011319;28;20816;-75
2023/11/05 04:30:42;;;;;;;893.80;839.60;;;9.80;99.90;;;;;;5012173;28;20453;-75
2023/11/05 04:33:09;;;;;;;882.07;829.90;;;9.80;99.90;;;;;;5028566;28;20509;-75
2023/11/05 04:35:36;;;;;;;878.70;827.23;;;9.90;99.90;;;;;;5014749;28;20462;-75
2023/11/05 04:38:03;;;;;;;861.33;811.50;;;9.90;99.90;;;;;;5026351;28;20453;-75
2023/11/05 04:40:30;;;;;;;843.27;795.53;;;9.90;99.90;;;;;;5011460;28;20490;-75
2023/11/05 04:42:58;;;;;;;837.50;790.57;;;10.00;99.90;;;;;;5012667;28;20834;-75
2023/11/05 04:45:25;;;;;;;850.43;803.23;;;10.00;99.90;;;;;;5031031;28;20484;-74
2023/11/05 04:47:52;;;;;;;863.97;815.37;;;10.00;99.90;;;;;;5030661;28;20513;-74
2023/11/05 04:50:19;;;;;;;868.83;819.27;;;10.00;99.90;;;;;;5031415;28;20450;-74
2023/11/05 04:52:46;;;;;;;887.00;836.20;;;9.90;99.90;;;;;;5029597;28;20478;-75
2023/11/05 04:55:13;;;;;;;896.73;844.57;;;9.90;99.90;;;;;;5029616;28;20450;-75
2023/11/05 04:57:40;;;;;;;900.13;847.50;;;9.90;99.90;;;;;;5029165;28;20456;-74
2023/11/05 05:00:10;;;;;;;890.03;839.00;;;9.90;99.90;;;;;;5020735;28;20447;-74
2023/11/05 05:02:36;;;;;;;891.10;839.60;;;10.00;99.90;;;;;;5021439;28;20452;-74
2023/11/05 05:05:03;;;;;;;885.20;835.10;;;10.00;99.90;;;;;;5011426;28;20523;-74
2023/11/05 05:07:30;;;;;;;879.07;829.30;;;10.00;99.90;;;;;;5011176;28;20536;-74
2023/11/05 05:09:57;;;;;;;884.33;834.30;;;10.00;99.90;;;;;;5012121;28;20451;-74
2023/11/05 05:12:25;;;;;;;871.60;822.80;;;10.10;99.90;;;;;;5011238;28;20457;-74
2023/11/05 05:14:51;;;;;;;875.63;827.03;;;10.10;99.90;;;;;;5011105;28;20539;-74
2023/11/05 05:17:20;;;;;;;857.20;809.90;;;10.10;99.90;;;;;;5029081;28;20550;-74
2023/11/05 05:19:50;;;;;;;846.43;800.67;;;10.20;99.90;;;;;;5012783;28;20456;-74
2023/11/05 05:22:18;;;;;;;862.20;814.50;;;10.20;99.90;;;;;;5028830;28;20457;-74
2023/11/05 05:24:45;;;;;;;857.30;810.00;;;10.20;99.90;;;;;;5015674;28;20457;-74
2023/11/05 05:27:12;;;;;;;869.43;820.97;;;10.20;99.90;;;;;;5030458;28;20456;-74
2023/11/05 05:29:39;;;;;;;881.33;831.43;;;10.20;99.90;;;;;;5030489;28;20451;-73
2023/11/05 05:32:06;;;;;;;900.37;848.37;;;10.20;99.90;;;;;;5011292;28;20456;-74
2023/11/05 05:34:35;;;;;;;875.60;826.93;;;10.20;99.90;;;;;;5011312;28;20477;-74
2023/11/05 05:37:02;;;;;;;892.83;841.53;;;10.20;99.90;;;;;;5025979;28;20935;-76
2023/11/05 05:39:29;;;;;;;920.87;865.97;;;10.20;99.90;;;;;;5013286;28;20449;-77
2023/11/05 05:41:57;;;;;;;926.50;868.50;;;10.10;99.90;;;;;;5015695;28;20448;-77
2023/11/05 05:44:24;;;;;;;936.27;875.60;;;10.10;99.90;;;;;;5024334;28;20454;-77
2023/11/05 05:46:51;;;;;;;940.13;876.17;;;10.00;99.90;;;;;;5013818;28;20486;-77
2023/11/05 05:49:18;;;;;;;946.77;879.23;;;9.90;99.90;;;;;;5014485;28;20546;-77
2023/11/05 05:51:46;;;;;;;947.47;879.73;;;9.90;99.90;;;;;;5014384;28;20549;-76
2023/11/05 05:54:13;;;;;;;951.53;880.60;;;9.80;99.90;;;;;;5013887;28;20484;-76
2023/11/05 05:56:40;;;;;;;942.00;869.80;;;9.90;99.90;;;;;;5014160;28;20540;-76
2023/11/05 05:59:07;;;;;;;941.40;870.00;;;9.80;99.90;;;;;;5014250;28;20453;-76
2023/11/05 06:01:33;;;;;;;943.67;874.80;;;9.90;99.90;;;;;;5014294;28;20507;-76
2023/11/05 06:04:01;;;;;;;954.77;885.70;;;9.90;99.90;;;;;;5014062;28;20458;-76
2023/11/05 06:06:28;;;;;;;942.00;877.00;;;9.90;99.90;;;;;;5033540;28;20977;-75
2023/11/05 06:08:56;;;;;;;946.20;881.83;;;10.00;99.90;;;;;;5017529;28;20505;-76
2023/11/05 06:11:23;;;;;;;938.47;874.93;;;10.00;99.90;;;;;;5014265;28;20461;-76
2023/11/05 06:13:50;;;;;;;940.30;877.70;;;10.00;99.90;;;;;;5013969;28;20575;-75
2023/11/05 06:16:17;;;;;;;939.37;876.17;;;9.90;99.90;;;;;;5014099;28;20453;-75
2023/11/05 06:18:44;;;;;;;953.53;890.27;;;9.90;99.90;;;;;;5013676;28;20455;-75
2023/11/05 06:21:11;;;;;;;951.40;887.90;;;9.90;99.90;;;;;;5013872;28;20459;-75
2023/11/05 06:23:37;;;;;;;954.33;886.43;;;9.80;99.90;;;;;;5013863;28;20824;-75
2023/11/05 06:26:07;;;;;;;961.53;890.10;;;9.80;99.90;;;;;;5013989;28;20543;-75
2023/11/05 06:28:33;;;;;;;940.07;867.30;;;9.70;99.90;;;;;;5024203;28;20462;-75
2023/11/05 06:31:00;;;;;;;940.10;866.03;;;9.60;99.90;;;;;;5033729;28;20453;-75
2023/11/05 06:33:33;;;;;;;942.93;868.33;;;9.60;99.90;;;;;;5032748;28;21021;-75
2023/11/05 06:36:00;;;;;;;946.53;870.43;;;9.60;99.90;;;;;;5033483;28;20546;-75
2023/11/05 06:38:28;;;;;;;933.03;856.90;;;9.60;99.90;;;;;;5033455;28;20478;-75
2023/11/05 06:40:55;;;;;;;928.33;851.17;;;9.70;99.90;;;;;;5033409;28;20454;-75
2023/11/05 06:43:23;;;;;;;932.30;855.60;;;9.70;99.90;;;;;;5033237;28;20447;-75
2023/11/05 06:45:50;;;;;;;939.43;867.13;;;9.80;99.90;;;;;;5020685;28;20452;-75
2023/11/05 06:48:18;;;;;;;941.87;868.07;;;9.80;99.90;;;;;;5020041;28;20565;-74
2023/11/05 06:50:45;;;;;;;944.90;874.50;;;9.90;99.90;;;;;;5029971;28;20518;-75
2023/11/05 06:53:12;;;;;;;951.07;883.23;;;9.90;99.90;;;;;;5032961;28;20478;-75
2023/11/05 06:55:38;;;;;;;926.57;862.27;;;9.90;99.90;;;;;;5033179;28;20448;-75
2023/11/05 06:58:06;;;;;;;934.07;867.10;;;10.00;99.90;;;;;;5031357;28;20451;-75
2023/11/05 07:00:34;;;;;;;933.07;863.07;;;10.00;99.90;;;;;;5032783;28;20808;-77
2023/11/05 07:03:02;;;;;;;929.53;856.93;;;9.90;99.90;;;;;;5023208;28;20478;-77
2023/11/05 07:05:29;;;;;;;924.27;851.30;;;10.00;99.90;;;;;;5013231;28;20459;-81
2023/11/05 07:07:56;;;;;;;929.20;852.50;;;9.90;99.90;;;;;;5012403;28;20862;-78
2023/11/05 07:10:24;;;;;;;930.70;852.43;;;9.90;99.90;;;;;;5013057;28;20486;-78
2023/11/05 07:12:51;;;;;;;929.67;850.47;;;9.90;99.90;;;;;;5012979;28;20481;-79
2023/11/05 07:15:19;;;;;;;937.37;858.13;;;9.90;99.90;;;;;;5013060;28;20454;-78
2023/11/05 07:17:48;;;;;;;938.40;860.70;;;9.90;99.90;;;;;;5012696;28;20483;-78
2023/11/05 07:20:15;;;;;;;930.83;852.33;;;9.90;99.90;;;;;;5012610;28;20929;-78
2023/11/05 07:22:43;;;;;;;932.37;852.27;;;9.90;99.90;;;;;;5012719;28;20543;-78
2023/11/05 07:25:10;;;;;;;931.37;849.17;;;9.90;99.90;;;;;;5012600;28;20450;-79
2023/11/05 07:27:38;;;;;;;928.73;846.50;;;9.90;99.90;;;;;;5012322;28;20502;-79
2023/11/05 07:30:06;;;;;;;934.73;850.80;;;9.90;99.90;;;;;;5012883;28;20484;-78
2023/11/05 07:32:33;;;;;;;914.30;828.80;;;9.90;99.90;;;;;;5012576;28;20499;-79
2023/11/05 07:35:01;;;;;;;927.77;840.87;;;9.90;99.90;;;;;;5012601;28;20859;-79
2023/11/05 07:37:28;;;;;;;917.27;830.70;;;9.90;99.90;;;;;;5012379;28;20458;-79
2023/11/05 07:39:55;;;;;;;917.47;829.53;;;10.00;99.90;;;;;;5012402;28;20459;-80
2023/11/05 07:42:22;;;;;;;909.73;821.27;;;10.00;99.90;;;;;;5012511;28;20453;-80
2023/11/05 07:44:49;;;;;;;915.80;825.05;;;10.00;99.90;;;;;;5016590;28;20848;-78
2023/11/05 07:47:16;;;;;;;905.35;812.20;;;10.00;99.90;;;;;;5027763;28;20787;-77
2023/11/05 07:49:44;;;;;;;898.80;809.20;;;10.00;99.90;;;;;;5032696;28;20202;-77
2023/11/05 07:52:14;;;;;;;909.43;820.80;;;10.10;99.90;;;;;;5087637;23;20489;-79
2023/11/05 07:54:41;;;;;;;901.20;811.60;;;10.20;99.90;;;;;;5052860;28;20483;-79
2023/11/05 07:57:08;;;;;;;897.47;808.03;;;10.30;99.90;;;;;;5052100;28;21215;-80
2023/11/05 07:59:35;;;;;;;906.70;815.57;;;10.30;99.90;;;;;;5052397;28;20447;-79
2023/11/05 08:02:04;;;;;;;901.23;814.07;;;10.50;99.90;;;;;;5052210;28;20455;-79
2023/11/05 08:04:31;;;;;;;919.33;831.90;;;10.50;99.90;;;;;;5044050;28;20456;-79
2023/11/05 08:06:58;;;;;;;943.50;855.27;;;10.60;99.90;;;;;;5028530;28;20464;-79
2023/11/05 08:09:27;;;;;;;928.33;842.40;;;10.60;99.90;;;;;;5031118;28;20485;-79
2023/11/05 08:11:55;;;;;;;939.17;855.07;;;10.70;99.90;;;;;;5031601;28;20990;-79
2023/11/05 08:14:22;;;;;;;949.10;866.60;;;10.70;99.90;;;;;;5031748;28;21067;-79
2023/11/05 08:16:50;;;;;;;956.00;875.50;;;10.70;99.90;;;;;;5031344;28;20492;-80
2023/11/05 08:19:17;;;;;;;945.00;864.20;;;10.60;99.90;;;;;;5031836;28;20574;-79
2023/11/05 08:21:44;;;;;;;949.30;871.23;;;10.70;99.90;;;;;;5031212;28;20462;-80
2023/11/05 08:24:11;;;;;;;945.07;872.13;;;10.70;99.90;;;;;;5031125;28;20448;-79
2023/11/05 08:26:39;;;;;;;921.37;847.63;;;10.70;99.90;;;;;;5031232;28;20563;-79
2023/11/05 08:29:06;;;;;;;923.50;846.87;;;10.80;99.90;;;;;;5031412;28;20527;-79
2023/11/05 08:31:33;;;;;;;915.33;836.33;;;10.80;99.90;;;;;;5031423;28;20445;-79
2023/11/05 08:34:00;;;;;;;932.77;856.27;;;10.90;99.90;;;;;;5031557;28;20491;-79
2023/11/05 08:36:27;;;;;;;925.37;850.87;;;11.00;99.90;;;;;;5031535;28;20445;-79
2023/11/05 08:38:54;;;;;;;927.30;856.70;;;11.10;99.90;;;;;;5031740;28;21019;-79
2023/11/05 08:41:21;;;;;;;927.47;860.60;;;11.10;99.90;;;;;;5032978;28;20475;-79
2023/11/05 08:43:50;;;;;;;926.60;860.10;;;11.00;99.90;;;;;;5032364;28;20448;-79
2023/11/05 08:46:17;;;;;;;917.73;852.13;;;11.00;99.90;;;;;;5023415;28;20511;-78
2023/11/05 08:48:44;;;;;;;913.93;849.87;;;11.00;99.90;;;;;;5031697;28;20560;-79
2023/11/05 08:51:11;;;;;;;932.87;868.77;;;11.00;99.90;;;;;;5031364;28;20479;-79
2023/11/05 08:53:38;;;;;;;926.47;861.30;;;10.90;99.90;;;;;;5031233;28;20463;-79
2023/11/05 08:56:05;;;;;;;914.70;851.57;;;11.00;99.90;;;;;;5033093;28;20959;-79
2023/11/05 08:58:32;;;;;;;916.90;856.40;;;11.10;99.90;;;;;;5006688;28;20555;-79
2023/11/05 09:01:01;;;;;;;911.07;851.37;;;11.10;99.90;;;;;;5031326;28;20455;-80
2023/11/05 09:03:28;;;;;;;912.03;850.40;;;11.20;99.90;;;;;;5031522;28;20470;-79
2023/11/05 09:05:55;;;;;;;907.00;847.87;;;11.40;99.90;;;;;;5013802;28;20494;-79
2023/11/05 09:08:23;;;;;;;897.50;842.23;;;11.50;99.90;;;;;;5030984;28;20477;-80
2023/11/05 09:10:51;;;;;;;888.70;837.10;;;11.60;99.90;;;;;;5030949;28;20455;-81
2023/11/05 09:13:19;;;;;;;867.70;820.03;;;11.60;99.90;;;;;;5030785;28;20480;-79
2023/11/05 09:15:49;;;;;;;852.03;810.10;;;11.70;99.90;;;;;;5031420;28;20573;-79
2023/11/05 09:18:17;;;;;;;806.47;770.57;;;11.60;99.90;;;;;;5031605;28;20564;-79
2023/11/05 09:20:44;;;;;;;771.57;740.10;;;11.60;99.90;;;;;;5032528;28;20453;-79
2023/11/05 09:23:20;;;;;;;820.50;783.17;;;11.60;99.90;;;;;;5034890;28;21041;-79
2023/11/05 09:25:46;;;;;;;818.43;781.07;;;11.60;99.90;;;;;;5034974;28;20507;-79
2023/11/05 09:28:14;;;;;;;812.63;775.47;;;11.70;99.90;;;;;;5034608;28;21056;-79
2023/11/05 09:30:42;;;;;;;846.00;803.80;;;11.70;99.90;;;;;;5034974;28;20455;-80
2023/11/05 09:33:09;;;;;;;858.20;814.10;;;11.80;99.90;;;;;;5034638;28;20458;-79
2023/11/05 09:35:37;;;;;;;879.43;831.27;;;11.80;99.90;;;;;;5034700;28;20479;-79
2023/11/05 09:38:04;;;;;;;853.97;810.10;;;12.00;99.90;;;;;;5034291;28;20476;-79
2023/11/05 09:40:33;;;;;;;871.90;826.73;;;12.10;99.90;;;;;;5034732;28;20988;-80
2023/11/05 09:43:01;;;;;;;825.87;787.70;;;12.30;99.90;;;;;;5017128;28;20455;-80
2023/11/05 09:45:30;;;;;;;805.10;769.57;;;12.30;99.90;;;;;;5034265;28;20504;-80
2023/11/05 09:47:58;;;;;;;662.07;638.87;;;12.50;99.90;;;;;;5034302;28;20471;-79
2023/11/05 09:50:25;;;;;;;675.37;652.10;;;12.40;99.90;;;;;;5034343;28;20458;-79
2023/11/05 09:52:53;;;;;;;658.37;636.20;;;12.40;99.90;;;;;;5034236;28;20502;-79
2023/11/05 09:55:20;;;;;;;612.83;593.20;;;12.50;99.90;;;;;;5034344;28;20483;-80
2023/11/05 09:57:48;;;;;;;629.63;608.93;;;12.50;99.90;;;;;;5034114;28;20563;-80
2023/11/05 10:00:15;;;;;;;534.70;518.47;;;12.50;99.90;;;;;;5034128;28;20452;-80
2023/11/05 10:02:58;;;;;;;481.50;467.20;;;12.40;99.90;;;;;;5033921;28;20971;-80
2023/11/05 10:05:28;;;;;;;444.87;432.23;;;12.40;99.90;;;;;;5034681;28;20451;-80
2023/11/05 10:07:56;;;;;;;361.77;351.67;;;12.10;99.90;;;;;;5033797;28;20537;-80
2023/11/05 10:10:23;;;;;;;575.60;557.90;;;11.80;99.90;;;;;;5034198;28;20538;-80
2023/11/05 10:12:50;;;;;;;696.97;673.27;;;11.80;99.90;;;;;;5016543;28;20457;-80
2023/11/05 10:15:19;;;;;;;735.73;708.87;;;11.70;99.90;;;;;;5033716;28;20478;-79
2023/11/05 10:17:46;;;;;;;811.20;776.23;;;11.60;99.90;;;;;;5033428;28;21060;-80
2023/11/05 10:20:13;;;;;;;830.70;792.50;;;11.70;99.90;;;;;;5034090;28;20459;-80
2023/11/05 10:22:43;;;;;;;862.60;819.63;;;11.70;99.90;;;;;;5034031;28;20451;-80
2023/11/05 10:25:23;;;;;;;843.40;801.43;;;11.70;99.90;;;;;;5033832;28;20481;-79
2023/11/05 10:27:51;;;;;;;824.63;786.37;;;11.70;99.90;;;;;;5015507;28;21037;-79
2023/11/05 10:30:19;;;;;;;861.97;817.70;;;11.70;99.90;;;;;;5033857;28;20957;-79
2023/11/05 10:32:48;;;;;;;851.40;807.83;;;11.80;99.90;;;;;;5033561;28;20458;-80
2023/11/05 10:35:19;;;;;;;806.27;768.80;;;12.00;99.90;;;;;;5016116;28;20555;-79
2023/11/05 10:37:46;;;;;;;679.27;654.53;;;12.20;99.90;;;;;;5033468;28;20475;-80
2023/11/05 10:40:16;;;;;;;515.73;499.80;;;12.30;99.90;;;;;;5033479;28;20455;-80
2023/11/05 10:42:44;;;;;;;510.53;494.90;;;12.40;99.90;;;;;;5033330;28;20946;-80
2023/11/05 10:45:12;;;;;;;456.83;443.53;;;12.40;99.90;;;;;;5033318;28;20960;-80
2023/11/05 10:47:40;;;;;;;446.23;433.23;;;12.40;99.90;;;;;;5033137;28;20486;-80
2023/11/05 10:50:10;;;;;;;384.23;372.73;;;12.50;99.90;;;;;;5033370;28;20516;-80
2023/11/05 10:52:41;;;;;;;267.93;259.33;;;12.60;99.90;;;;;;5033465;28;20473;-80
2023/11/05 10:55:09;;;;;;;155.13;149.97;;;12.60;99.90;;;;;;5015492;28;20591;-79
2023/11/05 10:57:42;;;;;;;143.10;138.10;;;12.50;99.90;;;;;;5032794;28;20547;-80
2023/11/05 11:00:48;;;;;;;244.37;237.07;;;12.50;99.90;;;;;;5033302;28;20513;-80
2023/11/05 11:03:15;;;;;;;549.83;533.53;;;11.90;99.90;;;;;;5032853;28;20534;-80
2023/11/05 11:06:14;;;;;;;706.97;682.60;;;11.70;99.90;;;;;;5033253;28;20448;-80
2023/11/05 11:08:56;;;;;;;808.80;774.33;;;11.50;99.90;;;;;;5032760;28;20586;-80
2023/11/05 11:11:24;;;;;;;834.10;794.03;;;11.50;99.90;;;;;;5032952;28;20456;-80
2023/11/05 11:13:58;;;;;;;848.27;805.57;;;11.40;99.90;;;;;;5014941;28;20461;-80
2023/11/05 11:16:31;;;;;;;865.80;820.20;;;11.30;99.90;;;;;;5032767;28;20572;-80
2023/11/05 11:19:04;;;;;;;872.90;825.07;;;11.30;99.90;;;;;;5032922;28;20470;-80
2023/11/05 11:21:33;;;;;;;876.00;822.30;;;11.30;99.90;;;;;;5031506;28;20459;-79
2023/11/05 11:24:05;;;;;;;864.67;814.40;;;11.30;99.90;;;;;;5032737;28;20575;-79
2023/11/05 11:26:36;;;;;;;851.17;800.22;;;11.30;99.90;;;;;;5031724;28;20453;-80
2023/11/05 11:29:04;;;;;;;802.07;757.47;;;11.20;99.90;;;;;;5032105;28;20223;-80
2023/11/05 11:31:35;;;;;;;814.33;766.27;;;11.00;99.90;;;;;;5031181;28;20545;-80
2023/11/05 11:34:02;;;;;;;832.03;781.57;;;11.00;99.90;;;;;;5031893;28;20462;-82
2023/11/05 11:36:28;;;;;;;833.83;780.37;;;10.90;99.90;;;;;;5032189;28;20488;-82
2023/11/05 11:38:55;;;;;;;836.73;785.10;;;10.80;99.90;;;;;;5017917;28;20475;-81
2023/11/05 11:41:22;;;;;;;840.90;784.90;;;10.70;99.90;;;;;;5020459;28;20460;-80
2023/11/05 11:43:49;;;;;;;839.37;783.67;;;10.60;99.90;;;;;;5005482;28;20974;-79
2023/11/05 11:46:25;;;;;;;836.37;779.67;;;11.00;99.90;;;;;;5031654;28;20450;-79
2023/11/05 11:48:52;;;;;;;835.00;779.17;;;11.00;99.90;;;;;;5031833;28;20518;-79
2023/11/05 11:51:19;;;;;;;828.63;777.43;;;11.10;99.90;;;;;;5032101;28;20459;-80
2023/11/05 11:53:47;;;;;;;823.37;772.40;;;11.10;99.90;;;;;;5025466;28;20982;-80
2023/11/05 11:56:13;;;;;;;818.53;768.77;;;11.40;99.90;;;;;;5030934;28;20515;-79
2023/11/05 11:58:42;;;;;;;763.10;724.07;;;11.50;99.90;;;;;;5030977;28;20480;-80
2023/11/05 12:01:12;;;;;;;715.20;683.00;;;11.50;99.90;;;;;;5029017;28;20469;-80
2023/11/05 12:03:41;;;;;;;746.73;709.83;;;11.40;99.90;;;;;;5031207;28;20454;-81
2023/11/05 12:06:08;;;;;;;761.10;724.00;;;11.40;99.90;;;;;;5031178;28;20462;-80
2023/11/05 12:08:39;;;;;;;766.27;729.17;;;11.10;99.90;;;;;;5023652;28;20577;-81
2023/11/05 12:11:08;;;;;;;783.20;742.70;;;10.90;99.90;;;;;;5030964;28;20473;-81
2023/11/05 12:13:35;;;;;;;774.37;734.87;;;10.80;99.90;;;;;;5031435;28;20479;-81